マガダン の空港の天気 - METARとTAF

マガダン・ソコル空港 ( UHMM / GDX ) - ロシア マガダン
飛行場実況気象(Metar)
観測時間08/11 18:00 MAGT (08/11 07:00 UTC)
風向・風速南西 5m/s
視程10km以上
天気現象
全天の8割程度の雲 雲底高度 1220m
気温16℃
湿度72%
気圧1009hPa
METARUHMM 110700Z 22005MPS 9999 BKN040CB 16/11 Q1009 R10/70D NOSIG RMK QFE742 R28/27004MPS
過去の天気等 Google飛行場航空写真 Wunderground天気予報

過去48時間のMETAR

飛行場予報(TAF)
発表時間: 8/11 15:54 MAGT (8/11 04:54 UTC)
予報対象時間: 11日17時 MAGT ~ 12日23時 MAGT
風向・風速南西 3m/s 瞬間風速 10m/s
視程10km以上
全天の4割程度の積乱雲 雲底高度 1220m
11日23時 MAGT から
風向・風速東南東 4m/s 瞬間風速 10m/s
視程3100m
天気現象弱いしゅう雨
全天の4割程度の雲 雲底高度 340m
全天の8割程度の積乱雲 雲底高度 610m
12日1時 MAGT ~ 12日20時 MAGT に一時的に
視程1000m
天気現象しゅう雨 もや
全天を覆う雲 鉛直視程 210m
TAF UHMM 110454Z 1106/1212 22003G10MPS 9999 SCT040CB
FM111200 11004G10MPS 3100 -SHRA SCT011 BKN020CB
TEMPO 1114/1209 1000 SHRA BR VV007